createdAt,value
2022-10-01T00:01:09.910Z,12.03
2022-10-01T00:06:11.186Z,12.20
2022-10-01T00:11:13.080Z,12.17
2022-10-01T00:16:14.417Z,12.23
2022-10-01T00:21:15.685Z,12.36
2022-10-01T00:26:17.082Z,12.39
2022-10-01T00:31:18.368Z,12.24
2022-10-01T00:36:19.613Z,12.08
2022-10-01T00:41:20.852Z,12.31
2022-10-01T00:46:22.275Z,12.11
2022-10-01T00:51:23.595Z,12.25
2022-10-01T00:56:24.867Z,12.13
2022-10-01T01:01:26.633Z,11.79
2022-10-01T01:06:27.974Z,11.70
2022-10-01T01:11:29.399Z,11.75
2022-10-01T01:16:32.677Z,11.78
2022-10-01T01:21:34.225Z,11.73
2022-10-01T01:26:35.724Z,11.38
2022-10-01T01:31:37.527Z,11.58
2022-10-01T01:36:39.026Z,11.68
2022-10-01T01:41:40.266Z,11.39
2022-10-01T01:46:41.520Z,11.50
2022-10-01T01:51:42.762Z,11.61
2022-10-01T01:56:44.079Z,11.21
2022-10-01T02:01:45.324Z,10.99
2022-10-01T02:06:46.558Z,10.75
2022-10-01T02:11:47.917Z,10.73
2022-10-01T02:16:49.270Z,10.89
2022-10-01T02:21:50.473Z,11.03
2022-10-01T02:26:51.738Z,10.88
2022-10-01T02:31:55.497Z,10.74
2022-10-01T02:36:56.741Z,10.70
2022-10-01T02:41:57.941Z,10.67
2022-10-01T02:47:02.288Z,10.28
2022-10-01T02:52:03.515Z,10.15
2022-10-01T02:57:23.093Z,10.15
2022-10-01T03:02:25.780Z,9.96
2022-10-01T03:07:27.119Z,10.12
2022-10-01T03:12:28.335Z,10.12
2022-10-01T03:17:29.546Z,10.04
2022-10-01T03:22:30.793Z,10.03
2022-10-01T03:27:32.226Z,10.11
2022-10-01T03:32:33.477Z,9.73
2022-10-01T03:37:34.819Z,9.75
2022-10-01T03:42:36.065Z,9.73
2022-10-01T03:47:37.717Z,9.48
2022-10-01T03:52:38.931Z,9.36
2022-10-01T03:57:40.139Z,9.33
2022-10-01T04:02:41.399Z,9.39
2022-10-01T04:07:42.721Z,9.47
2022-10-01T04:12:44.256Z,9.50
2022-10-01T04:17:46.185Z,9.65
2022-10-01T04:22:47.518Z,9.70
2022-10-01T04:27:48.889Z,9.32
2022-10-01T04:32:50.186Z,9.47
2022-10-01T04:37:51.382Z,9.49
2022-10-01T04:42:52.625Z,9.75
2022-10-01T04:47:53.959Z,9.75
2022-10-01T04:52:55.170Z,9.70
2022-10-01T04:57:56.410Z,9.59
2022-10-01T05:02:57.881Z,9.33
2022-10-01T05:07:59.082Z,9.28
2022-10-01T05:13:02.374Z,9.24
2022-10-01T05:18:03.619Z,9.44
2022-10-01T05:23:04.942Z,9.75
2022-10-01T05:28:06.310Z,9.87
2022-10-01T05:33:07.580Z,9.96
2022-10-01T05:38:08.802Z,10.03
2022-10-01T05:43:10.121Z,10.10
2022-10-01T05:48:12.029Z,10.15
2022-10-01T05:53:16.456Z,10.38
2022-10-01T05:58:17.737Z,10.22
2022-10-01T06:03:19.121Z,10.46
2022-10-01T06:08:21.579Z,10.42
2022-10-01T06:13:23.086Z,10.29
2022-10-01T06:18:24.354Z,10.24
2022-10-01T06:23:25.553Z,10.08
2022-10-01T06:28:26.866Z,10.05
2022-10-01T06:33:28.154Z,10.12
2022-10-01T06:38:29.841Z,10.42
2022-10-01T06:43:31.204Z,10.77
2022-10-01T06:48:32.575Z,10.75
2022-10-01T06:53:33.846Z,10.61
2022-10-01T06:58:35.104Z,10.75
2022-10-01T07:03:36.351Z,11.03
2022-10-01T07:08:37.626Z,11.11
2022-10-01T07:13:38.874Z,10.98
2022-10-01T07:18:40.155Z,10.81
2022-10-01T07:23:41.354Z,11.16
2022-10-01T07:28:44.550Z,11.19
2022-10-01T07:33:45.753Z,11.14
2022-10-01T07:38:47.115Z,11.06
2022-10-01T07:43:48.683Z,11.31
2022-10-01T07:48:49.926Z,11.35
2022-10-01T07:53:51.155Z,11.19
2022-10-01T07:58:52.415Z,11.31
2022-10-01T08:03:53.695Z,11.40
2022-10-01T08:08:54.973Z,11.85
2022-10-01T08:13:57.194Z,11.87
2022-10-01T08:18:59.321Z,11.79
2022-10-01T08:24:00.577Z,11.81
2022-10-01T08:29:01.892Z,12.05
2022-10-01T08:34:03.200Z,11.95
2022-10-01T08:39:04.408Z,11.75
2022-10-01T08:44:05.616Z,11.80
2022-10-01T08:49:06.858Z,11.94
2022-10-01T08:54:08.631Z,11.96
2022-10-01T08:59:09.831Z,11.98
2022-10-01T09:04:11.267Z,12.12
2022-10-01T09:09:12.506Z,12.23
2022-10-01T09:14:13.999Z,12.45
2022-10-01T09:19:15.215Z,12.37
2022-10-01T09:24:16.607Z,12.56
2022-10-01T09:29:17.855Z,12.62
2022-10-01T09:34:19.614Z,12.81
2022-10-01T09:39:20.823Z,12.61
2022-10-01T09:44:22.032Z,12.65
2022-10-01T09:49:23.291Z,12.65
2022-10-01T09:54:24.546Z,12.54
2022-10-01T09:59:25.763Z,12.72
2022-10-01T10:04:26.985Z,12.63
2022-10-01T10:09:28.201Z,12.69
2022-10-01T10:14:29.437Z,12.55
2022-10-01T10:19:30.942Z,12.73
2022-10-01T10:24:33.557Z,12.65
2022-10-01T10:29:34.807Z,12.63
2022-10-01T10:34:36.058Z,12.06
2022-10-01T10:39:37.311Z,11.83
2022-10-01T10:44:39.881Z,11.84
2022-10-01T10:49:41.285Z,11.92
2022-10-01T10:54:42.504Z,11.87
2022-10-01T10:59:43.725Z,11.82
2022-10-01T11:04:44.938Z,11.81
2022-10-01T11:09:46.198Z,11.58
2022-10-01T11:14:47.419Z,11.52
2022-10-01T11:19:48.695Z,11.48
2022-10-01T11:24:49.934Z,11.34
2022-10-01T11:29:51.148Z,11.32
2022-10-01T11:34:52.436Z,11.28
2022-10-01T11:39:53.650Z,11.26
2022-10-01T11:45:00.495Z,11.10
2022-10-01T11:50:03.079Z,11.18
2022-10-01T11:55:24.270Z,11.10
2022-10-01T12:00:27.463Z,11.07
2022-10-01T12:05:28.829Z,11.03
2022-10-01T12:10:30.133Z,10.99
2022-10-01T12:15:31.581Z,10.86
2022-10-01T12:20:32.935Z,10.86
2022-10-01T12:25:34.174Z,11.05
2022-10-01T12:30:35.369Z,10.99
2022-10-01T12:35:36.631Z,11.06
2022-10-01T12:40:38.275Z,11.16
2022-10-01T12:45:39.475Z,11.19
2022-10-01T12:50:40.671Z,11.24
2022-10-01T12:55:41.875Z,11.25
2022-10-01T13:00:43.372Z,11.40
2022-10-01T13:05:44.608Z,11.53
2022-10-01T13:10:45.872Z,11.77
2022-10-01T13:15:50.207Z,11.68
2022-10-01T13:20:54.100Z,11.68
2022-10-01T13:25:55.327Z,12.04
2022-10-01T13:30:56.615Z,12.04
2022-10-01T13:35:57.938Z,11.97
2022-10-01T13:40:59.667Z,11.87
2022-10-01T13:46:02.566Z,11.92
2022-10-01T13:51:05.152Z,12.18
2022-10-01T13:56:06.422Z,12.20
2022-10-01T14:01:11.317Z,12.29
2022-10-01T14:06:15.182Z,12.49
2022-10-01T14:11:35.243Z,12.39
2022-10-01T14:16:36.937Z,12.26
2022-10-01T14:21:38.291Z,12.28
2022-10-01T14:26:39.489Z,12.22
2022-10-01T14:31:40.780Z,12.00
2022-10-01T14:42:11.556Z,12.37
2022-10-01T14:47:18.071Z,12.19
2022-10-01T14:52:19.312Z,12.44
2022-10-01T14:57:20.613Z,12.14
2022-10-01T15:02:21.826Z,12.24
2022-10-01T15:07:23.027Z,12.23
2022-10-01T15:12:24.291Z,12.19
2022-10-01T15:17:25.464Z,12.30
2022-10-01T15:22:26.938Z,12.29
2022-10-01T15:27:28.233Z,12.31
2022-10-01T15:32:29.561Z,12.36
2022-10-01T15:37:31.313Z,12.44
2022-10-01T15:42:32.839Z,12.39
2022-10-01T15:47:34.178Z,12.89
2022-10-01T15:52:51.373Z,13.05
2022-10-01T15:57:52.805Z,13.29
2022-10-01T16:02:54.067Z,13.37
2022-10-01T16:07:56.172Z,13.48
2022-10-01T16:12:58.840Z,13.34
2022-10-01T16:18:02.312Z,13.13
2022-10-01T16:23:03.552Z,13.13
2022-10-01T16:28:05.403Z,13.27
2022-10-01T16:33:07.006Z,13.05
2022-10-01T16:38:09.492Z,12.93
2022-10-01T16:43:10.745Z,12.78
2022-10-01T16:48:12.003Z,12.76
2022-10-01T16:53:13.242Z,12.54
2022-10-01T16:58:14.574Z,12.58
2022-10-01T17:03:15.812Z,12.68
2022-10-01T17:08:17.132Z,12.82
2022-10-01T17:13:18.358Z,12.93
2022-10-01T17:18:19.594Z,12.87
2022-10-01T17:23:22.358Z,12.83
2022-10-01T17:28:24.402Z,12.65
2022-10-01T17:33:27.178Z,12.71
2022-10-01T17:38:28.403Z,12.66
2022-10-01T17:43:29.697Z,12.62
2022-10-01T17:48:30.953Z,12.54
2022-10-01T17:53:38.249Z,12.61
2022-10-01T17:58:45.258Z,12.57
2022-10-01T18:03:47.258Z,12.65
2022-10-01T18:08:55.446Z,12.63
2022-10-01T18:13:57.068Z,12.65
2022-10-01T18:24:19.478Z,12.72
2022-10-01T18:29:21.086Z,12.66
2022-10-01T18:34:22.353Z,12.61
2022-10-01T18:39:23.566Z,12.69
2022-10-01T18:44:24.798Z,12.74
2022-10-01T18:49:26.010Z,12.72
2022-10-01T18:54:27.229Z,12.85
2022-10-01T18:59:28.441Z,12.57
2022-10-01T19:04:30.385Z,12.49
2022-10-01T19:09:31.614Z,12.43
2022-10-01T19:14:32.823Z,12.37
2022-10-01T19:19:34.027Z,12.48
2022-10-01T19:24:35.340Z,12.11
2022-10-01T19:29:36.556Z,12.20
2022-10-01T19:34:37.754Z,12.24
2022-10-01T19:39:39.017Z,12.27
2022-10-01T19:44:40.219Z,12.24
2022-10-01T19:49:41.490Z,12.24
2022-10-01T19:54:42.709Z,12.19
2022-10-01T19:59:43.973Z,12.43
2022-10-01T20:04:45.675Z,12.53
2022-10-01T20:09:46.890Z,12.66
2022-10-01T20:15:06.948Z,12.59
2022-10-01T20:20:08.228Z,12.58
2022-10-01T20:25:09.583Z,12.70
2022-10-01T20:30:11.664Z,12.71
2022-10-01T20:35:13.752Z,12.64
2022-10-01T20:40:17.770Z,12.79
2022-10-01T20:45:19.662Z,12.83
2022-10-01T20:50:21.262Z,12.99
2022-10-01T20:55:29.097Z,12.99
2022-10-01T21:00:31.087Z,12.91
2022-10-01T21:05:32.306Z,12.79
2022-10-01T21:10:33.533Z,12.93
2022-10-01T21:15:34.739Z,12.88
2022-10-01T21:20:35.951Z,12.95
2022-10-01T21:25:37.154Z,12.96
2022-10-01T21:30:41.537Z,13.09
2022-10-01T21:35:43.081Z,13.07
2022-10-01T21:40:44.274Z,12.77
2022-10-01T21:45:45.534Z,13.09
2022-10-01T21:50:46.767Z,13.23
2022-10-01T21:55:47.963Z,13.25
2022-10-01T22:00:52.233Z,13.20
2022-10-01T22:05:53.483Z,13.06
2022-10-01T22:10:54.724Z,13.13
2022-10-01T22:15:55.965Z,13.06
2022-10-01T22:20:57.306Z,13.34
2022-10-01T22:25:58.523Z,13.20
2022-10-01T22:30:59.757Z,13.26
2022-10-01T22:36:02.274Z,13.24
2022-10-01T22:41:03.536Z,13.08
2022-10-01T22:46:04.803Z,13.14
2022-10-01T22:51:06.036Z,13.24
2022-10-01T22:56:07.287Z,13.26
2022-10-01T23:01:08.514Z,13.33
2022-10-01T23:06:09.747Z,13.09
2022-10-01T23:11:10.951Z,13.31
2022-10-01T23:16:12.184Z,13.42
2022-10-01T23:21:13.483Z,13.12
2022-10-01T23:26:14.786Z,13.24
2022-10-01T23:31:16.505Z,13.08
2022-10-01T23:36:17.758Z,13.14
2022-10-01T23:41:19.547Z,13.05
2022-10-01T23:46:20.773Z,12.97
2022-10-01T23:51:22.040Z,13.04
2022-10-01T23:56:41.981Z,12.93
